createdAt,value
2019-01-28T00:03:33.380Z,1.26
2019-01-28T00:09:28.344Z,0.8
2019-01-28T00:15:23.330Z,0.89
2019-01-28T00:21:18.341Z,1.21
2019-01-28T00:27:13.335Z,2.83
2019-01-28T00:33:08.355Z,2.44
2019-01-28T00:39:03.357Z,1.09
2019-01-28T00:44:58.357Z,1.17
2019-01-28T00:50:53.376Z,1.22
2019-01-28T00:56:48.380Z,1
2019-01-28T01:02:43.359Z,1.19
2019-01-28T01:08:38.378Z,1.25
2019-01-28T01:14:33.367Z,0.95
2019-01-28T01:20:28.392Z,0.78
2019-01-28T01:26:23.383Z,0.64
2019-01-28T01:32:18.398Z,0.61
2019-01-28T01:38:13.369Z,0.68
2019-01-28T01:44:08.463Z,0.76
2019-01-28T01:50:03.397Z,3.12
2019-01-28T01:55:58.404Z,1.3
2019-01-28T02:01:53.414Z,1
2019-01-28T02:07:48.408Z,0.84
2019-01-28T02:13:43.410Z,0.8
2019-01-28T02:19:38.420Z,0.75
2019-01-28T02:25:33.424Z,0.88
2019-01-28T02:31:28.404Z,0.91
2019-01-28T02:37:23.441Z,0.79
2019-01-28T02:43:18.418Z,0.78
2019-01-28T02:49:13.447Z,1.05
2019-01-28T02:55:08.419Z,0.87
2019-01-28T03:01:03.456Z,0.89
2019-01-28T03:06:58.439Z,0.96
2019-01-28T03:12:53.422Z,0.98
2019-01-28T03:18:48.429Z,0.81
2019-01-28T03:24:43.431Z,1.01
2019-01-28T03:30:38.450Z,1.8
2019-01-28T03:36:33.463Z,1.26
2019-01-28T03:42:28.454Z,0.84
2019-01-28T03:48:23.438Z,0.71
2019-01-28T03:54:18.466Z,1.11
2019-01-28T04:00:13.475Z,0.82
2019-01-28T04:06:08.483Z,0.86
2019-01-28T04:12:03.482Z,0.9
2019-01-28T04:17:58.522Z,1.03
2019-01-28T04:23:53.529Z,0.96
2019-01-28T04:29:48.572Z,1.11
2019-01-28T04:35:43.484Z,1.04
2019-01-28T04:41:38.499Z,1.02
2019-01-28T04:47:33.506Z,0.88
2019-01-28T04:53:28.501Z,1.1
2019-01-28T04:59:23.508Z,0.94
2019-01-28T05:05:18.501Z,0.89
2019-01-28T05:11:13.554Z,0.85
2019-01-28T05:17:08.499Z,0.72
2019-01-28T05:23:03.518Z,0.44
2019-01-28T05:28:58.524Z,0.76
2019-01-28T05:34:53.524Z,0.82
2019-01-28T05:40:48.553Z,0.63
2019-01-28T05:46:43.537Z,0.53
2019-01-28T05:52:38.560Z,0.76
2019-01-28T05:58:33.541Z,0.65
2019-01-28T06:04:28.552Z,0.85
2019-01-28T06:10:23.569Z,0.8
2019-01-28T06:16:18.567Z,1.2
2019-01-28T06:22:13.534Z,0.9
2019-01-28T06:28:08.534Z,0.89
2019-01-28T06:34:03.569Z,1.05
2019-01-28T06:39:58.542Z,1.22
2019-01-28T06:45:53.600Z,1.31
2019-01-28T06:51:48.608Z,1.7
2019-01-28T06:57:43.566Z,1.95
2019-01-28T07:03:38.570Z,3.27
2019-01-28T07:09:33.574Z,4.87
2019-01-28T07:15:28.553Z,3.6
2019-01-28T07:21:23.602Z,2.3
2019-01-28T07:27:18.588Z,4.49
2019-01-28T07:33:13.575Z,3.09
2019-01-28T07:39:08.610Z,3.39
2019-01-28T07:45:03.596Z,1.71
2019-01-28T07:50:58.621Z,1.03
2019-01-28T07:56:53.619Z,2.47
2019-01-28T08:02:48.609Z,3.81
2019-01-28T08:08:43.608Z,3.35
2019-01-28T08:14:38.604Z,4.69
2019-01-28T08:20:33.622Z,4.11
2019-01-28T08:26:28.606Z,4.57
2019-01-28T08:32:23.598Z,3.27
2019-01-28T08:38:18.613Z,2.43
2019-01-28T08:44:13.605Z,2.45
2019-01-28T08:50:08.654Z,5.13
2019-01-28T08:56:03.637Z,2.56
2019-01-28T09:01:58.625Z,4.34
2019-01-28T09:07:53.628Z,4.41
2019-01-28T09:13:48.663Z,5.73
2019-01-28T09:19:43.689Z,3.01
2019-01-28T09:25:38.645Z,2.53
2019-01-28T09:31:33.647Z,2.27
2019-01-28T09:37:28.667Z,3.86
2019-01-28T09:43:23.648Z,4.41
2019-01-28T09:49:18.763Z,3.72
2019-01-28T09:55:13.677Z,3.6
2019-01-28T10:01:08.647Z,3.76
2019-01-28T10:07:03.677Z,3.49
2019-01-28T10:12:58.660Z,6.4
2019-01-28T10:18:53.671Z,6.28
2019-01-28T10:24:48.667Z,3.67
2019-01-28T10:30:43.772Z,3.1
2019-01-28T10:36:38.674Z,2.79
2019-01-28T10:42:33.680Z,3.93
2019-01-28T10:48:28.667Z,3.4
2019-01-28T10:54:23.687Z,6.49
2019-01-28T11:00:18.677Z,4.25
2019-01-28T11:06:13.670Z,3.8
2019-01-28T11:12:08.687Z,4.62
2019-01-28T11:18:03.701Z,4.38
2019-01-28T11:23:58.708Z,4.71
2019-01-28T11:29:53.797Z,3.41
2019-01-28T11:35:48.721Z,4.04
2019-01-28T11:41:43.873Z,3.83
2019-01-28T11:47:38.792Z,5.21
2019-01-28T11:53:33.710Z,3.36
2019-01-28T11:59:28.711Z,2.85
2019-01-28T12:05:23.747Z,2.96
2019-01-28T12:11:18.715Z,3.29
2019-01-28T12:17:13.761Z,5.65
2019-01-28T12:23:08.754Z,4.01
2019-01-28T12:29:03.757Z,3.71
2019-01-28T12:34:58.744Z,5.49
2019-01-28T12:40:53.729Z,2.81
2019-01-28T12:46:48.724Z,2.78
2019-01-28T12:52:44.317Z,1.6
2019-01-28T12:58:38.754Z,1.73
2019-01-28T13:04:41.671Z,1.86
2019-01-28T13:10:28.752Z,2.02
2019-01-28T13:16:23.792Z,2.19
2019-01-28T13:22:18.772Z,1.77
2019-01-28T13:28:13.783Z,1.61
2019-01-28T13:34:08.802Z,1.28
2019-01-28T13:40:03.821Z,1.28
2019-01-28T13:45:58.770Z,1.38
2019-01-28T13:51:53.764Z,1.61
2019-01-28T13:57:48.867Z,2.4
2019-01-28T14:03:43.782Z,4.15
2019-01-28T14:09:38.796Z,3.61
2019-01-28T14:15:33.803Z,3.39
2019-01-28T14:21:28.788Z,4.31
2019-01-28T14:27:23.808Z,5.35
2019-01-28T14:33:18.789Z,5.85
2019-01-28T14:39:13.988Z,5.78
2019-01-28T14:45:08.797Z,3.99
2019-01-28T14:51:03.812Z,3.88
2019-01-28T14:56:58.811Z,4.17
2019-01-28T15:02:53.893Z,3.03
2019-01-28T15:08:48.819Z,3.66
2019-01-28T15:14:43.811Z,3.42
2019-01-28T15:20:38.846Z,3.24
2019-01-28T15:26:33.864Z,3.71
2019-01-28T15:32:28.842Z,3.44
2019-01-28T15:38:23.825Z,3.08
2019-01-28T15:44:18.811Z,2.4
2019-01-28T15:50:13.839Z,2.15
2019-01-28T15:56:08.844Z,4.66
2019-01-28T16:02:03.828Z,7.03
2019-01-28T16:07:58.860Z,7.72
2019-01-28T16:13:54.100Z,2.49
2019-01-28T16:19:48.861Z,3.64
2019-01-28T16:25:43.869Z,3.81
2019-01-28T16:31:38.859Z,5.38
2019-01-28T16:37:33.896Z,4.91
2019-01-28T16:43:28.862Z,3.53
2019-01-28T16:49:23.872Z,3.44
2019-01-28T16:55:18.854Z,3.58
2019-01-28T17:01:13.941Z,5.3
2019-01-28T17:07:08.873Z,3.41
2019-01-28T17:13:03.863Z,4.53
2019-01-28T17:18:58.909Z,5.7
2019-01-28T17:24:53.902Z,5.52
2019-01-28T17:30:48.847Z,5.02
2019-01-28T17:36:43.885Z,2.81
2019-01-28T17:42:38.895Z,3.83
2019-01-28T17:48:33.873Z,5.2
2019-01-28T17:54:28.894Z,7.45
2019-01-28T18:00:29.459Z,1.34
2019-01-28T18:06:18.909Z,0.8
2019-01-28T18:12:13.904Z,1.19
2019-01-28T18:18:08.901Z,1.57
2019-01-28T18:24:03.890Z,1.42
2019-01-28T18:29:58.888Z,2.95
2019-01-28T18:35:53.927Z,2.57
2019-01-28T18:41:48.894Z,2.67
2019-01-28T18:47:43.938Z,7.2
2019-01-28T18:53:38.916Z,10.95
2019-01-28T18:59:33.920Z,4.91
2019-01-28T19:05:28.925Z,1.15
2019-01-28T19:11:23.909Z,1.86
2019-01-28T19:17:18.948Z,0.6
2019-01-28T19:23:13.975Z,2
2019-01-28T19:29:08.936Z,2.91
2019-01-28T19:35:03.964Z,3.53
2019-01-28T19:40:58.966Z,3.4
2019-01-28T19:46:53.932Z,1.47
2019-01-28T19:52:48.952Z,2.5
2019-01-28T19:58:43.948Z,4.5
2019-01-28T20:04:38.946Z,2.94
2019-01-28T20:10:33.982Z,2.94
2019-01-28T20:16:28.976Z,0.99
2019-01-28T20:22:23.952Z,5.3
2019-01-28T20:28:18.964Z,8
2019-01-28T20:34:13.951Z,9.06
2019-01-28T20:40:08.998Z,3.23
2019-01-28T20:46:03.972Z,4.4
2019-01-28T20:51:58.970Z,2.54
2019-01-28T20:57:53.975Z,7.38
2019-01-28T21:03:49.006Z,3.83
2019-01-28T21:09:44.006Z,1.03
2019-01-28T21:15:38.989Z,1.13
2019-01-28T21:21:41.551Z,0.73
2019-01-28T21:27:29.001Z,0.53
2019-01-28T21:33:24.005Z,1.24
2019-01-28T21:39:19.016Z,1.4
2019-01-28T21:45:14.027Z,1.87
2019-01-28T21:51:09.024Z,2.36
2019-01-28T21:57:04.035Z,0.89
2019-01-28T22:02:59.025Z,0.51
2019-01-28T22:08:54.013Z,0.57
2019-01-28T22:14:49.011Z,0.92
2019-01-28T22:20:44.057Z,0.62
2019-01-28T22:26:39.091Z,0.8
2019-01-28T22:32:34.017Z,0.44
2019-01-28T22:38:29.039Z,1.12
2019-01-28T22:44:24.091Z,0.57
2019-01-28T22:50:19.060Z,3.61
2019-01-28T22:56:14.055Z,0.58
2019-01-28T23:02:09.038Z,0.59
2019-01-28T23:08:04.064Z,1.36
2019-01-28T23:13:59.782Z,0.64
2019-01-28T23:19:54.122Z,0.66
2019-01-28T23:25:49.062Z,0.69
2019-01-28T23:31:44.058Z,0.6
2019-01-28T23:37:39.052Z,0.77
2019-01-28T23:43:34.067Z,1.26
2019-01-28T23:49:29.059Z,8.14
2019-01-28T23:55:24.081Z,0.86
